Silver Shadow — C6FN6 — position and weather

sailwx.info

Track history (hours):
 
Tides and Currents Weather Stations Pressure Air Temp Water Temp Dewpoint Dewpoint Depression Visibility Wind Speed Wind Dir Waves Ship Positions

Silver Shadow

Operator: V Ships Leisure SAM

Last reported at 2017-Feb-27 02:05 UTC. Time now 2017-Mar-30 04:55 UTC.
Position N 05°02' E 115°05'.
Warning: this ship's position is 31 days out of date.

Length 186 m; draft 6.1 m.

Type: Ship. MMSI: 308628000.

Date/timePositionNaut miles runAvg speedWind from/ knotsBaromVisibWave heightAir tempDewpointWater temp
2017-Feb-27 02:05N 05°02' E 115°05'0 0.0
2017-Feb-27 01:29N 05°02' E 115°05'0 0.0
2017-Feb-27 00:34N 05°02' E 115°05'4 4.4
2017-Feb-26 23:33N 05°06' E 115°06'1211.3
2017-Feb-26 22:29N 05°12' E 114°56'  
2017-Feb-23 13:10N 01°15' E 104°03'813.8
2017-Feb-23 12:33N 01°13' E 103°55'7 7.2
2017-Feb-23 11:33N 01°16' E 103°48'1 0.7
2017-Feb-23 10:33N 01°16' E 103°49'0 0.0
2017-Feb-23 09:30N 01°16' E 103°49'0 0.0
2017-Feb-23 08:33N 01°16' E 103°49'0 0.0
2017-Feb-23 07:33N 01°16' E 103°49'0 0.0
2017-Feb-23 06:33N 01°16' E 103°49'0 0.0
2017-Feb-23 05:33N 01°16' E 103°49'0 0.0
2017-Feb-23 04:33N 01°16' E 103°49'0 0.0
2017-Feb-23 03:18N 01°16' E 103°49'0 0.0
2017-Feb-23 02:33N 01°16' E 103°49'0 0.0
2017-Feb-23 01:30N 01°16' E 103°49'0 0.0
2017-Feb-23 00:33N 01°16' E 103°49'0 0.0
2017-Feb-22 23:33N 01°16' E 103°49'0 0.0
2017-Feb-22 22:33N 01°16' E 103°49'0 0.0
2017-Feb-22 21:33N 01°16' E 103°49'0 0.0
2017-Feb-22 20:30N 01°16' E 103°49'0 0.0
2017-Feb-22 19:24N 01°16' E 103°49'0 0.0
2017-Feb-22 18:24N 01°16' E 103°49'0 0.0
2017-Feb-22 17:30N 01°16' E 103°49'0 0.0
2017-Feb-22 16:33N 01°16' E 103°49'0 0.0
2017-Feb-22 15:33N 01°16' E 103°49'0 0.0
2017-Feb-22 14:33N 01°16' E 103°49'0 0.0
2017-Feb-22 13:33N 01°16' E 103°49'0 0.0
2017-Feb-22 12:33N 01°16' E 103°49'0 0.0
2017-Feb-22 11:33N 01°16' E 103°49'0 0.0
2017-Feb-22 10:30N 01°16' E 103°49'0 0.0
2017-Feb-22 09:24N 01°16' E 103°49'0 0.0
2017-Feb-22 08:27N 01°16' E 103°49'0 0.0
2017-Feb-22 07:28N 01°16' E 103°49'1 1.0
2017-Feb-22 06:26N 01°15' E 103°48'0 0.1
2017-Feb-22 05:29N 01°15' E 103°48'0 0.0
2017-Feb-22 04:32N 01°15' E 103°48'0 0.1
2017-Feb-22 03:26N 01°15' E 103°48'0 0.0
2017-Feb-22 02:32N 01°15' E 103°48'0 0.1
2017-Feb-22 01:32N 01°15' E 103°48'0 0.0
2017-Feb-22 00:32N 01°15' E 103°48'0 0.0
2017-Feb-21 22:32N 01°15' E 103°48'0 0.0
2017-Feb-21 21:32N 01°15' E 103°48'0 0.0
2017-Feb-21 20:32N 01°15' E 103°48'0 0.0
2017-Feb-21 19:32N 01°15' E 103°48'0 0.0
2017-Feb-21 18:29N 01°15' E 103°48'0 0.0
2017-Feb-21 17:32N 01°15' E 103°48'0 0.1
2017-Feb-21 16:32N 01°15' E 103°48'0 0.0
2017-Feb-21 15:14N 01°15' E 103°48'0 0.0
2017-Feb-21 14:32N 01°15' E 103°48'0 0.0
2017-Feb-21 13:32N 01°15' E 103°48'0 0.0
2017-Feb-21 12:32N 01°15' E 103°48'0 0.0
2017-Feb-21 11:20N 01°15' E 103°48'0 0.0
2017-Feb-21 10:20N 01°15' E 103°48'0 0.1
2017-Feb-21 09:32N 01°15' E 103°48'0 0.1
2017-Feb-21 07:26N 01°15' E 103°48'0 0.0
2017-Feb-21 05:32N 01°15' E 103°48'0 0.0
2017-Feb-21 04:32N 01°15' E 103°48'0 0.0
2017-Feb-21 03:33N 01°15' E 103°48'0 0.0
2017-Feb-21 02:33N 01°15' E 103°48'2 1.9
2017-Feb-21 01:33N 01°13' E 103°48'9 9.5
2017-Feb-21 00:34N 01°15' E 103°57'  
Track history (hours):
 
Tides and Currents Weather Stations Pressure Air Temp Water Temp Dewpoint Dewpoint Depression Visibility Wind Speed Wind Dir Waves Ship Positions

Silver Shadow

Operator: V Ships Leisure SAM

Last reported at 2017-Feb-27 02:05 UTC. Time now 2017-Mar-30 04:55 UTC.
Position N 05°02' E 115°05'.
Warning: this ship's position is 31 days out of date.

Length 186 m; draft 6.1 m.

Type: Ship. MMSI: 308628000.

Date/timePositionNaut miles runAvg speedWind from/ knotsBaromVisibWave heightAir tempDewpointWater temp
2017-Feb-27 02:05N 05°02' E 115°05'0 0.0
2017-Feb-27 01:29N 05°02' E 115°05'0 0.0
2017-Feb-27 00:34N 05°02' E 115°05'4 4.4
2017-Feb-26 23:33N 05°06' E 115°06'1211.3
2017-Feb-26 22:29N 05°12' E 114°56'  
2017-Feb-23 13:10N 01°15' E 104°03'813.8
2017-Feb-23 12:33N 01°13' E 103°55'7 7.2
2017-Feb-23 11:33N 01°16' E 103°48'1 0.7
2017-Feb-23 10:33N 01°16' E 103°49'0 0.0
2017-Feb-23 09:30N 01°16' E 103°49'0 0.0
2017-Feb-23 08:33N 01°16' E 103°49'0 0.0
2017-Feb-23 07:33N 01°16' E 103°49'0 0.0
2017-Feb-23 06:33N 01°16' E 103°49'0 0.0
2017-Feb-23 05:33N 01°16' E 103°49'0 0.0
2017-Feb-23 04:33N 01°16' E 103°49'0 0.0
2017-Feb-23 03:18N 01°16' E 103°49'0 0.0
2017-Feb-23 02:33N 01°16' E 103°49'0 0.0
2017-Feb-23 01:30N 01°16' E 103°49'0 0.0
2017-Feb-23 00:33N 01°16' E 103°49'0 0.0
2017-Feb-22 23:33N 01°16' E 103°49'0 0.0
2017-Feb-22 22:33N 01°16' E 103°49'0 0.0
2017-Feb-22 21:33N 01°16' E 103°49'0 0.0
2017-Feb-22 20:30N 01°16' E 103°49'0 0.0
2017-Feb-22 19:24N 01°16' E 103°49'0 0.0
2017-Feb-22 18:24N 01°16' E 103°49'0 0.0
2017-Feb-22 17:30N 01°16' E 103°49'0 0.0
2017-Feb-22 16:33N 01°16' E 103°49'0 0.0
2017-Feb-22 15:33N 01°16' E 103°49'0 0.0
2017-Feb-22 14:33N 01°16' E 103°49'0 0.0
2017-Feb-22 13:33N 01°16' E 103°49'0 0.0
2017-Feb-22 12:33N 01°16' E 103°49'0 0.0
2017-Feb-22 11:33N 01°16' E 103°49'0 0.0
2017-Feb-22 10:30N 01°16' E 103°49'0 0.0
2017-Feb-22 09:24N 01°16' E 103°49'0 0.0
2017-Feb-22 08:27N 01°16' E 103°49'0 0.0
2017-Feb-22 07:28N 01°16' E 103°49'1 1.0
2017-Feb-22 06:26N 01°15' E 103°48'0 0.1
2017-Feb-22 05:29N 01°15' E 103°48'0 0.0
2017-Feb-22 04:32N 01°15' E 103°48'0 0.1
2017-Feb-22 03:26N 01°15' E 103°48'0 0.0
2017-Feb-22 02:32N 01°15' E 103°48'0 0.1
2017-Feb-22 01:32N 01°15' E 103°48'0 0.0
2017-Feb-22 00:32N 01°15' E 103°48'0 0.0
2017-Feb-21 22:32N 01°15' E 103°48'0 0.0
2017-Feb-21 21:32N 01°15' E 103°48'0 0.0
2017-Feb-21 20:32N 01°15' E 103°48'0 0.0
2017-Feb-21 19:32N 01°15' E 103°48'0 0.0
2017-Feb-21 18:29N 01°15' E 103°48'0 0.0
2017-Feb-21 17:32N 01°15' E 103°48'0 0.1
2017-Feb-21 16:32N 01°15' E 103°48'0 0.0
2017-Feb-21 15:14N 01°15' E 103°48'0 0.0
2017-Feb-21 14:32N 01°15' E 103°48'0 0.0
2017-Feb-21 13:32N 01°15' E 103°48'0 0.0
2017-Feb-21 12:32N 01°15' E 103°48'0 0.0
2017-Feb-21 11:20N 01°15' E 103°48'0 0.0
2017-Feb-21 10:20N 01°15' E 103°48'0 0.1
2017-Feb-21 09:32N 01°15' E 103°48'0 0.1
2017-Feb-21 07:26N 01°15' E 103°48'0 0.0
2017-Feb-21 05:32N 01°15' E 103°48'0 0.0
2017-Feb-21 04:32N 01°15' E 103°48'0 0.0
2017-Feb-21 03:33N 01°15' E 103°48'0 0.0
2017-Feb-21 02:33N 01°15' E 103°48'2 1.9
2017-Feb-21 01:33N 01°13' E 103°48'9 9.5
2017-Feb-21 00:34N 01°15' E 103°57'  

Dump ship's entire track history